Time;durP1;ratioP1;P1;durP2;ratioP2;P2;SDS_P1;SDS_P2;PMS_P1;PMS_P2;Temp;Humidity;BMP_temperature;BMP_pressure;BME280_temperature;BME280_humidity;BME280_pressure;Samples;Min_cycle;Max_cycle;Signal;HPM_P1;HPM_P2
2023/06/16 04:31:43;;;;;;;21.67;14.77;;;18.50;70.20;;;;;;5317011;23;20047;-76
2023/06/16 04:34:10;;;;;;;21.27;15.10;;;18.60;70.40;;;;;;4975020;28;20023;-76
2023/06/16 04:36:36;;;;;;;20.08;14.27;;;18.60;70.50;;;;;;4959980;29;20512;-77
2023/06/16 04:39:03;;;;;;;24.98;15.63;;;18.70;70.00;;;;;;4960053;28;20027;-76
2023/06/16 04:41:28;;;;;;;21.83;15.05;;;18.80;69.80;;;;;;4970968;28;20066;-77
2023/06/16 04:43:54;;;;;;;22.00;16.10;;;18.80;70.00;;;;;;4979289;28;20054;-76
2023/06/16 04:46:20;;;;;;;24.75;15.50;;;18.80;69.80;;;;;;4979286;28;20031;-77
2023/06/16 04:48:46;;;;;;;23.45;15.73;;;18.80;69.60;;;;;;4979189;28;20023;-77
2023/06/16 04:51:12;;;;;;;23.02;15.85;;;18.80;69.60;;;;;;4960449;28;20862;-77
2023/06/16 04:53:37;;;;;;;28.25;15.52;;;18.80;69.40;;;;;;4978049;28;20027;-74
2023/06/16 04:56:03;;;;;;;23.20;15.32;;;18.80;69.40;;;;;;4961625;28;20261;-74
2023/06/16 04:58:29;;;;;;;23.60;15.93;;;18.80;69.50;;;;;;4961515;28;20023;-78
2023/06/16 05:00:55;;;;;;;29.15;15.75;;;18.90;69.10;;;;;;4976483;28;20430;-75
2023/06/16 05:03:20;;;;;;;22.33;15.20;;;18.90;69.10;;;;;;4977760;28;20102;-76
2023/06/16 05:05:46;;;;;;;23.40;14.60;;;18.90;69.30;;;;;;4980580;28;20041;-75
2023/06/16 05:08:12;;;;;;;24.98;16.10;;;19.00;69.00;;;;;;4982110;28;20031;-75
2023/06/16 05:10:38;;;;;;;23.75;16.17;;;19.00;68.80;;;;;;4980777;28;20082;-77
2023/06/16 05:13:04;;;;;;;25.75;16.52;;;18.90;69.00;;;;;;4982348;28;20033;-76
2023/06/16 05:15:29;;;;;;;24.15;16.38;;;18.90;69.90;;;;;;4964094;28;20113;-76
2023/06/16 05:17:55;;;;;;;26.50;16.70;;;18.80;70.10;;;;;;4980357;28;20446;-76
2023/06/16 05:20:21;;;;;;;23.10;16.23;;;18.90;70.00;;;;;;4978186;28;20062;-78
2023/06/16 05:22:46;;;;;;;23.77;16.08;;;18.80;70.30;;;;;;4978223;28;20604;-79
2023/06/16 05:25:12;;;;;;;26.90;17.15;;;18.80;70.40;;;;;;4993718;28;20037;-76
2023/06/16 05:27:38;;;;;;;26.00;16.85;;;18.90;70.40;;;;;;4991569;28;20476;-76
2023/06/16 05:30:04;;;;;;;24.67;16.88;;;18.90;70.10;;;;;;4979090;28;20090;-76
2023/06/16 05:32:29;;;;;;;24.70;17.15;;;19.00;70.30;;;;;;4961031;28;20066;-76
2023/06/16 05:34:56;;;;;;;25.52;16.63;;;19.00;70.40;;;;;;4961631;28;20133;-76
2023/06/16 05:37:22;;;;;;;25.42;17.30;;;19.00;70.70;;;;;;4962035;28;20051;-76
2023/06/16 05:39:49;;;;;;;23.98;15.80;;;19.10;70.30;;;;;;4973319;28;20039;-76
2023/06/16 05:42:15;;;;;;;27.55;17.08;;;19.10;70.30;;;;;;4942523;29;20040;-76
2023/06/16 05:44:42;;;;;;;28.02;17.23;;;19.20;70.30;;;;;;4942468;29;20027;-76
2023/06/16 05:47:08;;;;;;;28.35;17.05;;;19.20;70.20;;;;;;4959725;29;20035;-76
2023/06/16 05:49:34;;;;;;;26.45;16.92;;;19.20;70.10;;;;;;4974903;28;20031;-76
2023/06/16 05:52:02;;;;;;;25.05;17.42;;;19.20;70.10;;;;;;4978946;28;20027;-77
2023/06/16 05:54:28;;;;;;;24.65;16.58;;;19.20;70.30;;;;;;4969048;28;20023;-78
2023/06/16 05:56:55;;;;;;;25.85;15.70;;;19.30;70.00;;;;;;4959501;28;20041;-79
2023/06/16 05:59:20;;;;;;;24.35;16.23;;;19.30;70.50;;;;;;4954450;28;20070;-79
2023/06/16 06:01:49;;;;;;;22.42;15.88;;;19.40;70.40;;;;;;4982442;28;20054;-79
2023/06/16 06:04:15;;;;;;;22.38;15.52;;;19.50;69.70;;;;;;4960198;28;20038;-79
2023/06/16 06:06:40;;;;;;;24.30;15.75;;;19.50;69.80;;;;;;4961350;28;20030;-79
2023/06/16 06:09:06;;;;;;;24.08;15.30;;;19.60;70.00;;;;;;4977643;28;20027;-79
2023/06/16 06:11:32;;;;;;;22.65;15.38;;;19.60;69.80;;;;;;4978424;28;20796;-79
2023/06/16 06:13:57;;;;;;;23.48;15.85;;;19.70;69.70;;;;;;4976233;28;20383;-79
2023/06/16 06:16:23;;;;;;;25.58;16.45;;;19.80;70.20;;;;;;4975838;28;20532;-78
2023/06/16 06:18:49;;;;;;;23.40;16.52;;;19.80;70.00;;;;;;4974895;28;20111;-78
2023/06/16 06:21:15;;;;;;;23.05;16.65;;;19.80;69.10;;;;;;4977752;28;20030;-79
2023/06/16 06:23:41;;;;;;;24.80;16.33;;;19.90;69.80;;;;;;4955984;28;20034;-79
2023/06/16 06:26:07;;;;;;;23.58;16.35;;;19.80;69.40;;;;;;4973070;28;20034;-78
2023/06/16 06:28:32;;;;;;;21.67;15.90;;;19.80;69.40;;;;;;4976868;28;20133;-78
2023/06/16 06:30:58;;;;;;;23.33;16.10;;;19.90;69.40;;;;;;4978477;28;20046;-79
2023/06/16 06:33:24;;;;;;;22.63;15.50;;;20.00;69.50;;;;;;4978133;28;20109;-79
2023/06/16 06:35:50;;;;;;;22.38;15.40;;;20.00;69.30;;;;;;4973809;28;20025;-78
2023/06/16 06:38:15;;;;;;;20.98;14.07;;;20.20;69.10;;;;;;4977487;28;20047;-79
2023/06/16 06:40:41;;;;;;;23.25;16.20;;;20.30;68.90;;;;;;4976303;28;20133;-78
2023/06/16 06:43:07;;;;;;;23.60;16.25;;;20.30;68.70;;;;;;4973724;28;20038;-79
2023/06/16 06:45:32;;;;;;;23.75;15.07;;;20.30;69.30;;;;;;4965592;28;20077;-78
2023/06/16 06:47:58;;;;;;;26.08;15.48;;;20.30;69.30;;;;;;4986818;28;20036;-78
2023/06/16 06:50:23;;;;;;;21.13;15.68;;;20.30;69.60;;;;;;4977000;28;20041;-78
2023/06/16 06:52:49;;;;;;;23.58;16.35;;;20.30;69.60;;;;;;4975387;28;20058;-78
2023/06/16 06:55:15;;;;;;;24.45;16.52;;;20.40;69.00;;;;;;4976097;28;20033;-78
2023/06/16 06:57:42;;;;;;;22.50;15.27;;;20.50;68.90;;;;;;4981385;28;20392;-78
2023/06/16 07:00:08;;;;;;;20.77;14.95;;;20.60;68.70;;;;;;4982498;28;20027;-79
2023/06/16 07:02:35;;;;;;;22.48;14.75;;;20.70;68.40;;;;;;4976378;28;20526;-79
2023/06/16 07:05:01;;;;;;;21.77;14.90;;;20.80;68.40;;;;;;4959783;28;20023;-79
2023/06/16 07:07:26;;;;;;;21.08;14.48;;;20.90;68.20;;;;;;4976842;28;20034;-79
2023/06/16 07:09:52;;;;;;;17.80;13.23;;;20.90;68.10;;;;;;4969991;28;20034;-79
2023/06/16 07:12:17;;;;;;;16.58;13.43;;;20.90;68.10;;;;;;4983840;28;20107;-79
2023/06/16 07:14:47;;;;;;;19.65;13.27;;;21.10;67.40;;;;;;4976773;28;20022;-79
2023/06/16 07:17:13;;;;;;;17.27;12.52;;;21.10;67.40;;;;;;4990951;28;20097;-80
2023/06/16 07:19:38;;;;;;;17.23;12.65;;;21.30;67.10;;;;;;4980704;28;20031;-79
2023/06/16 07:22:05;;;;;;;18.15;11.98;;;21.40;66.80;;;;;;4994323;28;20038;-79
2023/06/16 07:24:31;;;;;;;16.10;11.63;;;21.50;67.20;;;;;;4984333;28;20018;-79
2023/06/16 07:26:59;;;;;;;14.30;11.13;;;21.60;66.00;;;;;;4991639;28;20041;-79
2023/06/16 07:29:25;;;;;;;15.68;11.13;;;21.70;65.80;;;;;;4975544;28;20058;-79
2023/06/16 07:31:51;;;;;;;17.20;11.35;;;21.80;66.00;;;;;;4954335;28;20074;-78
2023/06/16 07:34:17;;;;;;;14.30;10.80;;;21.90;65.40;;;;;;4961100;28;20133;-80
2023/06/16 07:36:42;;;;;;;13.25;10.20;;;22.10;64.90;;;;;;4975759;28;20045;-75
2023/06/16 07:39:08;;;;;;;13.90;10.02;;;22.20;64.40;;;;;;4976194;28;20030;-77
2023/06/16 07:41:34;;;;;;;14.05;10.35;;;22.50;64.20;;;;;;4974038;28;20570;-76
2023/06/16 07:43:59;;;;;;;13.55;9.27;;;23.00;62.80;;;;;;4975376;28;20086;-76
2023/06/16 07:46:25;;;;;;;13.40;9.27;;;23.90;60.80;;;;;;4975888;28;20039;-76
2023/06/16 07:48:50;;;;;;;12.60;9.55;;;25.40;57.50;;;;;;4979247;28;20039;-77
2023/06/16 07:51:16;;;;;;;9.60;8.55;;;27.50;52.50;;;;;;4978256;28;20030;-76
2023/06/16 07:53:42;;;;;;;11.25;8.82;;;29.30;47.70;;;;;;4986355;28;20034;-83
2023/06/16 07:56:08;;;;;;;12.07;10.30;;;30.70;44.40;;;;;;4956248;28;20030;-91
2023/06/16 07:58:36;;;;;;;13.73;11.63;;;31.90;42.20;;;;;;4975592;28;20034;-85
2023/06/16 08:01:04;;;;;;;10.20;8.15;;;32.80;40.10;;;;;;4973628;28;20035;-85
2023/06/16 08:03:30;;;;;;;7.60;6.90;;;33.60;38.70;;;;;;4959552;28;20022;-88
2023/06/16 08:05:57;;;;;;;7.57;6.78;;;34.20;37.60;;;;;;4969758;28;20026;-80
2023/06/16 08:08:23;;;;;;;8.15;6.65;;;34.30;37.30;;;;;;4957892;28;20026;-80
2023/06/16 08:10:51;;;;;;;8.73;6.38;;;34.20;36.40;;;;;;4975554;28;20042;-80
2023/06/16 08:13:16;;;;;;;7.18;6.35;;;34.10;36.80;;;;;;4957965;28;20030;-85
2023/06/16 08:15:42;;;;;;;9.32;7.20;;;34.20;36.60;;;;;;4975972;28;20486;-79
2023/06/16 08:18:08;;;;;;;8.02;6.85;;;34.30;36.50;;;;;;4973826;28;20954;-79
2023/06/16 08:20:35;;;;;;;9.40;6.47;;;34.30;36.20;;;;;;4974335;28;20035;-79
2023/06/16 08:23:00;;;;;;;9.82;5.70;;;34.40;36.20;;;;;;4975987;28;20481;-79
2023/06/16 08:25:27;;;;;;;7.72;5.55;;;34.60;35.90;;;;;;4976715;28;20038;-78
2023/06/16 08:27:52;;;;;;;8.73;6.43;;;34.50;35.70;;;;;;4958029;28;20045;-79
2023/06/16 08:30:19;;;;;;;7.75;5.85;;;34.80;35.10;;;;;;4955185;28;20034;-79
2023/06/16 08:32:44;;;;;;;7.05;6.38;;;34.80;35.20;;;;;;4976019;28;20039;-79
2023/06/16 08:35:10;;;;;;;11.18;6.80;;;34.50;34.90;;;;;;4957741;28;20023;-79
2023/06/16 08:37:36;;;;;;;6.55;5.70;;;34.80;35.10;;;;;;4971699;28;20031;-79
2023/06/16 08:40:10;;;;;;;9.02;5.82;;;34.90;33.80;;;;;;4976403;28;20936;-79
2023/06/16 08:42:40;;;;;;;8.05;5.72;;;35.10;33.80;;;;;;4977605;28;20573;-79
2023/06/16 08:45:06;;;;;;;7.35;6.40;;;35.40;34.10;;;;;;4973935;28;20113;-79
2023/06/16 08:47:34;;;;;;;11.18;5.47;;;35.80;32.60;;;;;;4976965;28;20047;-79
2023/06/16 08:50:00;;;;;;;9.10;6.60;;;36.10;32.90;;;;;;4964080;28;20034;-79
2023/06/16 08:52:29;;;;;;;7.63;6.75;;;36.00;31.90;;;;;;4958478;28;20481;-79
2023/06/16 08:54:58;;;;;;;8.82;5.68;;;36.40;31.50;;;;;;4968602;28;20022;-79
2023/06/16 08:57:25;;;;;;;7.85;6.25;;;36.80;32.20;;;;;;4986673;28;20501;-79
2023/06/16 08:59:56;;;;;;;9.50;6.88;;;36.60;31.00;;;;;;4984200;28;20030;-79
2023/06/16 09:02:21;;;;;;;8.10;6.10;;;36.40;29.20;;;;;;4979482;28;20030;-79
2023/06/16 09:04:47;;;;;;;8.98;5.90;;;36.20;30.20;;;;;;4980327;28;20654;-79
2023/06/16 09:07:19;;;;;;;6.70;6.00;;;36.00;30.20;;;;;;4970657;28;20129;-78
2023/06/16 09:09:45;;;;;;;8.02;5.95;;;36.50;29.60;;;;;;4964667;28;20030;-79
2023/06/16 09:12:11;;;;;;;6.78;5.50;;;37.10;30.20;;;;;;4988300;28;20022;-79
2023/06/16 09:14:38;;;;;;;13.40;6.40;;;37.30;29.90;;;;;;4983299;28;20023;-79
2023/06/16 09:17:05;;;;;;;5.95;5.35;;;37.00;29.20;;;;;;4974190;28;20030;-78
2023/06/16 09:19:35;;;;;;;7.95;6.43;;;37.30;30.80;;;;;;4977475;28;20027;-79
2023/06/16 09:22:02;;;;;;;8.45;6.15;;;37.80;30.40;;;;;;4983429;28;20093;-79
2023/06/16 09:24:28;;;;;;;7.10;6.28;;;38.30;29.60;;;;;;4967523;28;20054;-79
2023/06/16 09:26:59;;;;;;;7.90;6.00;;;37.70;29.80;;;;;;4973883;28;20098;-79
2023/06/16 09:29:27;;;;;;;7.75;5.32;;;37.90;28.60;;;;;;4960579;28;20038;-79
2023/06/16 09:31:53;;;;;;;7.28;5.70;;;38.40;30.10;;;;;;4973313;28;20049;-79
2023/06/16 09:34:19;;;;;;;6.55;5.38;;;38.30;28.40;;;;;;4977833;28;20412;-80
2023/06/16 09:36:45;;;;;;;7.32;5.40;;;38.60;29.40;;;;;;4978455;28;20034;-80
2023/06/16 09:39:25;;;;;;;7.15;6.05;;;38.70;28.60;;;;;;4978931;28;20030;-79
2023/06/16 09:41:51;;;;;;;8.40;5.78;;;38.90;27.20;;;;;;4978781;28;20026;-79
2023/06/16 09:44:18;;;;;;;9.43;5.40;;;38.90;27.50;;;;;;4977512;28;20038;-79
2023/06/16 09:46:44;;;;;;;7.70;6.47;;;38.90;28.10;;;;;;4959206;29;20035;-80
2023/06/16 09:49:26;;;;;;;9.15;6.40;;;38.90;27.10;;;;;;4959471;29;20489;-79
2023/06/16 09:51:57;;;;;;;6.25;5.65;;;38.40;27.10;;;;;;4943362;29;20094;-79
2023/06/16 09:54:24;;;;;;;;;;;38.60;28.30;;;;;;4985528;28;20030;-79
2023/06/16 09:56:50;;;;;;;7.57;6.22;;;39.10;28.00;;;;;;4978334;28;19953;-79
2023/06/16 09:59:17;;;;;;;11.02;6.22;;;39.50;28.30;;;;;;4960134;28;20450;-79
2023/06/16 10:01:46;;;;;;;6.25;5.65;;;39.80;27.90;;;;;;4978841;28;20058;-79
2023/06/16 10:04:15;;;;;;;8.65;5.75;;;40.00;27.00;;;;;;4947292;28;20039;-80
2023/06/16 10:06:49;;;;;;;6.15;5.55;;;39.90;28.20;;;;;;4976973;28;20078;-79
2023/06/16 10:09:18;;;;;;;9.13;6.35;;;39.70;28.30;;;;;;4963210;28;20094;-80
2023/06/16 10:11:47;;;;;;;8.70;6.38;;;39.00;28.10;;;;;;4976114;28;20397;-79
2023/06/16 10:14:16;;;;;;;6.60;5.70;;;38.90;29.50;;;;;;4977817;28;20023;-80
2023/06/16 10:16:46;;;;;;;8.40;6.53;;;38.80;29.70;;;;;;4957146;28;20114;-81
2023/06/16 10:19:13;;;;;;;8.63;6.95;;;38.30;29.80;;;;;;4975486;28;20031;-81
2023/06/16 10:21:40;;;;;;;7.70;6.57;;;38.20;30.00;;;;;;4977316;28;20122;-80
2023/06/16 10:24:07;;;;;;;10.05;6.63;;;37.80;30.60;;;;;;4965990;28;20121;-79
2023/06/16 10:26:33;;;;;;;9.30;6.82;;;36.90;31.00;;;;;;4972975;28;20040;-79
2023/06/16 10:28:59;;;;;;;9.32;6.97;;;37.00;31.20;;;;;;4958737;29;20035;-78
2023/06/16 10:31:27;;;;;;;7.95;7.15;;;37.00;31.80;;;;;;4973005;28;20090;-79
2023/06/16 10:34:00;;;;;;;8.07;6.38;;;36.60;32.20;;;;;;4972108;28;20112;-79
2023/06/16 10:36:36;;;;;;;11.15;7.55;;;36.00;32.70;;;;;;4955341;28;20027;-78
2023/06/16 10:39:12;;;;;;;9.30;7.00;;;35.70;33.10;;;;;;4976550;28;20027;-79
2023/06/16 10:41:57;;;;;;;8.82;7.35;;;35.50;34.10;;;;;;4977191;28;20077;-79
2023/06/16 10:44:29;;;;;;;9.95;7.80;;;35.30;35.00;;;;;;4976818;28;20035;-78
2023/06/16 10:47:12;;;;;;;10.07;7.70;;;34.60;35.40;;;;;;4977528;28;20034;-79
2023/06/16 10:49:51;;;;;;;9.68;8.65;;;34.00;35.10;;;;;;4941055;29;20083;-79
2023/06/16 10:52:18;;;;;;;11.93;9.07;;;33.60;35.90;;;;;;4958285;29;20031;-79
2023/06/16 10:54:48;;;;;;;9.15;7.90;;;33.20;36.10;;;;;;4974646;28;20059;-79
2023/06/16 10:57:15;;;;;;;10.13;7.82;;;32.90;37.50;;;;;;4941385;29;20477;-78
2023/06/16 11:00:10;;;;;;;10.70;9.30;;;32.80;38.40;;;;;;4966070;28;20031;-80
2023/06/16 11:02:37;;;;;;;10.65;8.27;;;32.80;37.20;;;;;;4973003;28;20026;-78
2023/06/16 11:05:10;;;;;;;8.93;7.80;;;32.30;38.60;;;;;;4974386;28;20027;-78
2023/06/16 11:08:12;;;;;;;10.48;8.77;;;32.30;38.90;;;;;;4981843;28;20031;-77
2023/06/16 11:11:02;;;;;;;9.67;8.10;;;31.90;39.20;;;;;;4973863;28;20085;-77
2023/06/16 11:13:33;;;;;;;9.98;8.05;;;31.90;40.50;;;;;;4980274;28;20030;-77
2023/06/16 11:16:00;;;;;;;9.60;8.45;;;32.20;40.20;;;;;;4983697;28;20100;-77
2023/06/16 11:18:27;;;;;;;12.75;9.35;;;32.40;40.50;;;;;;4982458;28;20022;-77
2023/06/16 11:20:56;;;;;;;11.70;9.52;;;32.20;38.90;;;;;;4979080;28;20073;-78
2023/06/16 11:23:23;;;;;;;12.55;9.70;;;32.00;39.40;;;;;;4973964;28;20022;-78
2023/06/16 11:25:49;;;;;;;9.20;8.27;;;32.00;39.70;;;;;;4990963;28;20114;-77
2023/06/16 11:28:19;;;;;;;9.77;8.10;;;32.30;40.10;;;;;;4968806;28;20038;-77
2023/06/16 11:30:46;;;;;;;11.15;8.35;;;32.40;40.90;;;;;;4977151;28;20050;-77
2023/06/16 11:33:16;;;;;;;9.45;8.45;;;32.40;41.00;;;;;;4979726;28;20084;-77
2023/06/16 11:35:42;;;;;;;12.23;8.73;;;32.40;40.50;;;;;;4984388;28;20034;-77
2023/06/16 11:38:07;;;;;;;10.50;8.73;;;32.30;41.30;;;;;;4973684;28;20030;-78
2023/06/16 11:40:33;;;;;;;11.18;8.35;;;32.20;40.80;;;;;;4962497;28;20037;-78
2023/06/16 11:43:06;;;;;;;11.43;8.30;;;32.40;41.30;;;;;;4991306;28;20393;-78
2023/06/16 11:45:38;;;;;;;11.05;9.40;;;32.50;41.50;;;;;;4977027;28;20155;-78
2023/06/16 11:48:05;;;;;;;;;;;32.30;40.60;;;;;;4986409;28;20065;-78
2023/06/16 11:50:31;;;;;;;10.07;8.20;;;32.00;40.60;;;;;;4988631;28;19910;-78
2023/06/16 11:52:57;;;;;;;9.55;8.65;;;31.80;41.40;;;;;;4979498;28;20065;-77
2023/06/16 11:55:24;;;;;;;11.93;8.02;;;31.80;41.90;;;;;;4979976;28;20565;-78
2023/06/16 11:57:50;;;;;;;10.48;7.78;;;31.70;42.00;;;;;;4974705;28;20561;-78
2023/06/16 12:00:21;;;;;;;12.88;9.20;;;31.80;41.80;;;;;;4988742;28;20361;-77
2023/06/16 12:02:48;;;;;;;10.30;8.50;;;31.60;42.10;;;;;;4986543;28;20081;-77
2023/06/16 12:05:21;;;;;;;12.25;8.50;;;31.50;42.30;;;;;;4975165;28;20046;-78
2023/06/16 12:07:47;;;;;;;9.50;8.48;;;31.50;43.40;;;;;;4980947;28;20026;-78
2023/06/16 12:10:14;;;;;;;11.02;8.95;;;31.50;41.80;;;;;;4983757;28;20026;-78
2023/06/16 12:12:42;;;;;;;10.88;8.32;;;31.40;41.50;;;;;;4974830;28;20057;-78
2023/06/16 12:15:08;;;;;;;9.98;8.57;;;31.20;43.10;;;;;;4987757;28;20120;-78
2023/06/16 12:17:34;;;;;;;9.55;8.45;;;31.30;43.70;;;;;;4954160;28;20551;-78
2023/06/16 12:20:04;;;;;;;11.07;7.70;;;31.40;43.60;;;;;;4976214;28;20039;-78
2023/06/16 12:22:38;;;;;;;12.60;9.02;;;31.50;43.10;;;;;;4976693;28;20026;-78
2023/06/16 12:25:15;;;;;;;10.68;8.93;;;31.30;41.50;;;;;;4977056;28;20054;-78
2023/06/16 12:27:51;;;;;;;12.27;9.02;;;31.10;43.20;;;;;;4988872;28;20402;-78
2023/06/16 12:30:17;;;;;;;9.70;8.65;;;31.00;42.00;;;;;;4999437;28;20038;-78
2023/06/16 12:32:44;;;;;;;11.30;8.50;;;31.10;43.90;;;;;;4979560;28;20023;-78
2023/06/16 12:35:11;;;;;;;11.85;8.32;;;30.90;43.30;;;;;;4962606;28;20891;-78
2023/06/16 12:40:06;;;;;;;11.20;8.27;;;30.90;42.00;;;;;;4975627;28;20038;-78
2023/06/16 12:42:32;;;;;;;9.40;7.90;;;30.90;43.30;;;;;;4981779;28;20033;-78
2023/06/16 12:45:02;;;;;;;11.95;8.90;;;30.80;43.60;;;;;;4976621;28;20038;-78
2023/06/16 12:47:29;;;;;;;10.63;8.35;;;30.60;44.00;;;;;;4976414;28;20031;-78
2023/06/16 12:49:57;;;;;;;10.63;8.05;;;30.50;43.30;;;;;;4971983;28;20466;-78
2023/06/16 12:52:24;;;;;;;11.60;8.73;;;30.40;44.40;;;;;;4978930;28;20026;-78
2023/06/16 12:54:52;;;;;;;11.20;8.68;;;30.10;44.40;;;;;;4978004;28;20033;-78
2023/06/16 12:57:18;;;;;;;9.07;8.07;;;29.90;44.50;;;;;;4987416;28;20029;-78
2023/06/16 12:59:44;;;;;;;10.65;8.38;;;30.00;45.60;;;;;;4987028;28;20034;-78
2023/06/16 13:02:10;;;;;;;11.40;8.32;;;30.20;44.40;;;;;;4977425;28;20480;-78
2023/06/16 13:04:36;;;;;;;11.98;8.00;;;30.30;45.40;;;;;;4988324;28;20026;-78
2023/06/16 13:07:02;;;;;;;12.23;8.55;;;30.60;45.00;;;;;;4980240;28;20462;-78
2023/06/16 13:09:28;;;;;;;8.85;7.78;;;30.60;42.10;;;;;;4979415;28;20026;-79
2023/06/16 13:11:56;;;;;;;10.43;8.05;;;30.50;43.80;;;;;;4989198;28;20146;-78
2023/06/16 13:14:22;;;;;;;13.60;8.52;;;30.60;42.90;;;;;;4998708;28;20019;-78
2023/06/16 13:16:48;;;;;;;11.75;8.45;;;30.80;43.10;;;;;;4987412;28;20034;-78
2023/06/16 13:19:14;;;;;;;10.00;7.85;;;31.00;42.30;;;;;;4960028;28;20038;-78
2023/06/16 13:21:39;;;;;;;10.70;7.60;;;31.20;43.30;;;;;;4986704;28;20072;-78
2023/06/16 13:24:05;;;;;;;13.73;8.27;;;31.50;42.40;;;;;;4977208;28;20393;-78
2023/06/16 13:26:30;;;;;;;8.35;7.45;;;31.80;42.30;;;;;;4984048;28;20023;-78
2023/06/16 13:28:56;;;;;;;9.65;8.55;;;32.00;41.00;;;;;;4986973;28;20090;-78
2023/06/16 13:31:22;;;;;;;9.45;7.93;;;32.20;40.10;;;;;;4976280;28;20039;-78
2023/06/16 13:33:48;;;;;;;10.10;7.85;;;32.20;40.00;;;;;;4978781;28;20485;-78
2023/06/16 13:36:21;;;;;;;9.23;7.78;;;32.00;39.60;;;;;;4981382;28;20049;-78
2023/06/16 13:38:48;;;;;;;10.25;7.50;;;31.80;41.10;;;;;;4976419;28;20445;-78
2023/06/16 13:41:14;;;;;;;10.00;7.80;;;31.50;41.50;;;;;;4978831;28;20034;-78
2023/06/16 13:43:42;;;;;;;10.85;8.80;;;31.40;41.80;;;;;;4974055;28;20035;-78
2023/06/16 13:46:07;;;;;;;11.85;8.57;;;31.30;40.90;;;;;;4975621;28;20026;-78
2023/06/16 13:48:33;;;;;;;9.43;7.45;;;31.20;41.00;;;;;;4962558;28;20035;-78
2023/06/16 13:50:59;;;;;;;8.75;7.32;;;31.30;41.80;;;;;;4978382;28;20095;-78
2023/06/16 13:53:24;;;;;;;11.52;7.88;;;31.50;42.10;;;;;;4976898;28;20035;-78
2023/06/16 13:55:51;;;;;;;8.70;7.78;;;31.50;40.50;;;;;;4978572;28;20034;-78
2023/06/16 13:58:16;;;;;;;12.85;7.80;;;31.60;41.70;;;;;;4980947;28;20023;-78
2023/06/16 14:00:42;;;;;;;8.63;6.97;;;31.40;41.10;;;;;;4959246;28;20747;-78
2023/06/16 14:03:08;;;;;;;7.53;6.82;;;31.40;40.30;;;;;;4986628;28;20030;-78
2023/06/16 14:05:33;;;;;;;8.40;7.03;;;31.30;41.80;;;;;;4962867;28;20023;-78
2023/06/16 14:08:01;;;;;;;8.68;7.30;;;31.40;41.70;;;;;;4961259;28;20133;-78
2023/06/16 14:10:27;;;;;;;11.95;7.35;;;31.40;41.80;;;;;;4976371;28;20030;-78
2023/06/16 14:12:53;;;;;;;7.95;7.15;;;31.30;40.30;;;;;;4979715;28;20045;-78
2023/06/16 14:15:19;;;;;;;8.43;7.00;;;31.20;41.70;;;;;;4960079;28;20027;-79
2023/06/16 14:17:45;;;;;;;8.38;6.95;;;30.90;40.80;;;;;;4981518;28;20026;-78
2023/06/16 14:20:12;;;;;;;12.48;7.15;;;31.10;41.30;;;;;;4983108;28;20031;-78
2023/06/16 14:22:38;;;;;;;8.68;7.20;;;31.10;39.50;;;;;;4988173;28;20504;-78
2023/06/16 14:25:06;;;;;;;8.55;6.28;;;31.10;38.30;;;;;;4993233;28;20027;-78
2023/06/16 14:27:32;;;;;;;8.35;6.63;;;31.00;38.70;;;;;;4997121;28;20041;-78
2023/06/16 14:30:03;;;;;;;7.68;6.88;;;31.00;38.50;;;;;;4971385;28;20090;-78
2023/06/16 14:32:28;;;;;;;7.93;6.20;;;30.80;37.20;;;;;;4975290;28;20046;-78
2023/06/16 14:34:54;;;;;;;9.10;6.53;;;30.80;38.70;;;;;;4956025;29;20122;-78
2023/06/16 14:37:19;;;;;;;8.05;6.60;;;30.80;39.90;;;;;;4967254;28;20023;-78
2023/06/16 14:39:45;;;;;;;7.90;6.65;;;30.90;40.10;;;;;;4974702;28;20089;-78
2023/06/16 14:42:11;;;;;;;10.73;7.00;;;30.80;39.50;;;;;;4977554;28;20110;-78
2023/06/16 14:44:37;;;;;;;7.65;6.65;;;30.60;39.40;;;;;;4977932;28;20023;-77
2023/06/16 14:47:03;;;;;;;10.15;6.78;;;30.60;40.00;;;;;;4959949;28;20118;-77
2023/06/16 14:49:28;;;;;;;7.95;7.07;;;30.70;40.30;;;;;;4976544;28;20061;-77
2023/06/16 14:51:55;;;;;;;10.90;7.53;;;30.70;41.70;;;;;;4976432;28;20035;-78
2023/06/16 14:54:21;;;;;;;10.98;7.85;;;30.30;42.30;;;;;;4978025;28;20054;-77
2023/06/16 14:56:47;;;;;;;8.85;7.90;;;30.30;41.70;;;;;;4975992;28;20027;-77
2023/06/16 14:59:13;;;;;;;11.32;7.57;;;30.30;41.40;;;;;;4976233;28;20088;-77
2023/06/16 15:01:38;;;;;;;9.13;7.65;;;30.30;42.20;;;;;;4976883;28;20062;-77
2023/06/16 15:04:04;;;;;;;9.90;7.28;;;30.30;42.70;;;;;;4977042;28;20037;-78
2023/06/16 15:06:30;;;;;;;9.90;7.57;;;30.50;44.50;;;;;;4971779;28;20127;-80
2023/06/16 15:08:56;;;;;;;10.43;7.95;;;30.80;43.00;;;;;;4975962;28;20122;-80
2023/06/16 15:11:21;;;;;;;11.38;8.15;;;30.80;43.40;;;;;;4976062;28;20030;-76
2023/06/16 15:13:47;;;;;;;9.95;8.05;;;30.80;43.30;;;;;;4958595;28;20027;-76
2023/06/16 15:16:18;;;;;;;8.07;7.28;;;30.80;42.30;;;;;;4975270;28;20101;-77
2023/06/16 15:18:43;;;;;;;11.93;8.23;;;30.80;42.20;;;;;;4967552;28;20081;-78
2023/06/16 15:21:09;;;;;;;12.00;7.45;;;30.90;41.60;;;;;;4976105;28;20081;-78
2023/06/16 15:23:37;;;;;;;9.90;7.35;;;31.00;41.30;;;;;;4978246;28;20493;-78
2023/06/16 15:26:03;;;;;;;9.73;7.55;;;30.90;43.30;;;;;;4960364;28;20023;-78
2023/06/16 15:28:29;;;;;;;8.88;7.32;;;30.80;42.50;;;;;;4959724;28;20046;-78
2023/06/16 15:30:58;;;;;;;11.15;7.65;;;30.70;42.60;;;;;;4973824;28;20057;-77
2023/06/16 15:33:24;;;;;;;8.65;7.75;;;30.60;43.30;;;;;;4962519;28;20034;-77
2023/06/16 15:35:52;;;;;;;8.63;7.60;;;30.80;42.30;;;;;;4975551;28;20031;-77
2023/06/16 15:38:18;;;;;;;9.48;7.40;;;30.60;42.30;;;;;;4975244;28;20089;-77
2023/06/16 15:40:44;;;;;;;8.38;7.13;;;30.50;42.20;;;;;;4977848;28;20034;-77
2023/06/16 15:43:11;;;;;;;9.85;7.85;;;30.60;42.80;;;;;;4961502;28;20035;-76
2023/06/16 15:45:37;;;;;;;10.80;8.65;;;30.30;43.70;;;;;;4949700;28;20043;-77
2023/06/16 15:48:03;;;;;;;10.82;8.23;;;30.00;42.80;;;;;;4976140;28;20035;-77
2023/06/16 15:50:30;;;;;;;12.40;7.68;;;30.00;43.80;;;;;;4983134;28;20023;-77
2023/06/16 15:52:55;;;;;;;10.45;7.47;;;29.80;42.60;;;;;;4976045;28;20038;-78
2023/06/16 15:55:21;;;;;;;10.70;7.50;;;29.80;42.70;;;;;;4962123;28;20035;-77
2023/06/16 15:57:50;;;;;;;8.70;6.90;;;29.60;42.70;;;;;;4946636;28;20053;-78
2023/06/16 16:00:18;;;;;;;10.32;7.10;;;29.70;43.30;;;;;;4976107;28;20026;-77
2023/06/16 16:02:44;;;;;;;9.35;7.15;;;29.80;42.30;;;;;;4955617;28;20110;-78
2023/06/16 16:05:14;;;;;;;9.02;7.60;;;29.90;42.20;;;;;;4946644;29;20030;-80
2023/06/16 16:07:40;;;;;;;9.35;7.47;;;29.90;40.50;;;;;;4971545;28;20122;-80
2023/06/16 16:10:07;;;;;;;9.30;7.40;;;30.10;41.50;;;;;;4976279;28;20062;-77
2023/06/16 16:12:33;;;;;;;8.57;7.13;;;30.30;42.40;;;;;;4984584;28;20736;-77
2023/06/16 16:15:00;;;;;;;8.65;7.38;;;30.40;41.50;;;;;;4957052;28;20475;-78
2023/06/16 16:17:27;;;;;;;9.15;7.00;;;30.40;41.50;;;;;;4960262;28;20034;-78
2023/06/16 16:19:53;;;;;;;11.02;7.70;;;30.60;40.40;;;;;;4958754;28;20052;-78
2023/06/16 16:22:19;;;;;;;9.77;7.75;;;30.70;39.90;;;;;;4974991;28;20371;-77
2023/06/16 16:24:45;;;;;;;9.98;7.38;;;30.60;40.00;;;;;;4977804;28;20027;-77
2023/06/16 16:27:11;;;;;;;8.30;7.15;;;30.60;41.10;;;;;;4973847;28;20022;-79
2023/06/16 16:29:37;;;;;;;8.00;7.20;;;30.50;40.20;;;;;;4936102;28;20031;-78
2023/06/16 16:32:04;;;;;;;8.45;7.15;;;30.50;39.40;;;;;;4976135;28;20059;-78
2023/06/16 16:34:30;;;;;;;7.60;6.32;;;30.40;39.30;;;;;;4974084;28;20027;-82
2023/06/16 16:37:00;;;;;;;8.40;6.45;;;30.30;39.20;;;;;;4958234;28;20066;-82
2023/06/16 16:39:26;;;;;;;8.50;7.28;;;30.30;37.40;;;;;;4973876;28;20037;-78
2023/06/16 16:41:52;;;;;;;9.73;7.05;;;30.30;38.70;;;;;;4973695;28;20482;-78
2023/06/16 16:44:23;;;;;;;8.15;6.45;;;30.30;38.40;;;;;;4973671;28;20030;-79
2023/06/16 16:46:49;;;;;;;7.95;6.68;;;30.20;38.70;;;;;;4974233;28;20497;-78
2023/06/16 16:49:15;;;;;;;8.52;6.07;;;30.00;37.90;;;;;;4975264;28;20609;-78
2023/06/16 16:51:40;;;;;;;8.38;6.40;;;29.80;37.20;;;;;;4958135;28;20035;-78
2023/06/16 16:54:06;;;;;;;7.28;6.47;;;29.70;38.50;;;;;;4973395;28;20500;-79
2023/06/16 16:56:32;;;;;;;8.25;6.85;;;29.40;39.10;;;;;;4975275;28;20035;-78
2023/06/16 16:58:58;;;;;;;7.97;6.63;;;29.30;39.40;;;;;;4975258;28;20023;-78
2023/06/16 17:01:23;;;;;;;9.70;6.97;;;29.20;40.80;;;;;;4973135;28;20030;-80
2023/06/16 17:03:49;;;;;;;8.43;7.03;;;29.30;40.40;;;;;;4975633;28;20049;-82
2023/06/16 17:06:15;;;;;;;9.65;6.45;;;29.30;40.70;;;;;;4952850;28;20027;-78
2023/06/16 17:08:40;;;;;;;9.23;6.60;;;29.30;39.90;;;;;;4967516;28;20444;-77
2023/06/16 17:11:06;;;;;;;10.90;6.65;;;29.30;39.70;;;;;;4961554;28;20062;-77
2023/06/16 17:13:32;;;;;;;7.72;6.22;;;29.30;39.20;;;;;;4971651;28;20107;-77